createdAt,value
2019-04-20T00:02:59.684Z,54.85
2019-04-20T00:08:09.182Z,47.13
2019-04-20T00:13:20.991Z,40.52
2019-04-20T00:18:15.032Z,45.23
2019-04-20T00:23:33.477Z,38.15
2019-04-20T00:28:50.855Z,42.90
2019-04-20T00:33:51.293Z,38.45
2019-04-20T00:38:50.910Z,41.20
2019-04-20T00:43:49.213Z,33.58
2019-04-20T00:49:01.652Z,34.35
2019-04-20T00:54:00.238Z,38.92
2019-04-20T00:59:16.802Z,37.48
2019-04-20T01:04:34.248Z,43.45
2019-04-20T01:09:30.874Z,37.58
2019-04-20T01:14:43.459Z,41.95
2019-04-20T01:19:40.503Z,45.85
2019-04-20T01:24:47.828Z,50.23
2019-04-20T01:30:00.571Z,44.65
2019-04-20T01:35:12.111Z,45.90
2019-04-20T01:40:04.050Z,47.62
2019-04-20T01:45:14.513Z,48.38
2019-04-20T01:50:16.670Z,49.55
2019-04-20T01:55:43.985Z,47.35
2019-04-20T02:00:42.122Z,54.55
2019-04-20T02:05:53.108Z,54.40
2019-04-20T02:10:57.066Z,54.75
2019-04-20T02:16:04.248Z,57.13
2019-04-20T02:21:22.333Z,54.18
2019-04-20T02:26:09.220Z,52.50
2019-04-20T02:36:51.187Z,49.85
2019-04-20T02:41:57.887Z,45.45
2019-04-20T02:47:07.539Z,42.53
2019-04-20T02:52:33.629Z,48.25
2019-04-20T02:57:33.528Z,49.27
2019-04-20T03:02:06.264Z,45.55
2019-04-20T03:07:09.261Z,52.70
2019-04-20T03:12:23.854Z,49.70
2019-04-20T03:17:31.080Z,41.45
2019-04-20T03:22:39.718Z,44.38
2019-04-20T03:27:38.149Z,47.20
2019-04-20T03:33:08.480Z,46.23
2019-04-20T03:37:52.505Z,50.70
2019-04-20T03:42:37.122Z,51.55
2019-04-20T03:47:54.440Z,52.58
2019-04-20T03:53:13.958Z,47.40
2019-04-20T03:58:18.524Z,52.20
2019-04-20T04:03:35.044Z,48.25
2019-04-20T04:08:21.215Z,53.08
2019-04-20T04:13:20.795Z,53.33
2019-04-20T04:18:31.789Z,66.95
2019-04-20T04:23:56.099Z,52.45
2019-04-20T04:28:47.546Z,53.33
2019-04-20T04:34:16.466Z,50.45
2019-04-20T04:39:08.687Z,49.25
2019-04-20T04:44:09.674Z,47.43
2019-04-20T04:49:06.804Z,52.00
2019-04-20T04:54:16.599Z,48.08
2019-04-20T04:59:10.616Z,45.55
2019-04-20T05:04:34.780Z,41.15
2019-04-20T05:09:22.102Z,38.40
2019-04-20T05:14:38.719Z,38.45
2019-04-20T05:19:54.092Z,42.43
2019-04-20T05:25:02.321Z,43.38
2019-04-20T05:29:44.688Z,46.58
2019-04-20T05:35:10.934Z,40.05
2019-04-20T05:40:20.561Z,43.28
2019-04-20T05:45:19.692Z,44.60
2019-04-20T05:50:29.279Z,37.05
2019-04-20T05:55:37.456Z,34.45
2019-04-20T06:00:40.213Z,34.10
2019-04-20T06:05:55.149Z,36.95
2019-04-20T06:10:50.615Z,37.85
2019-04-20T06:15:53.682Z,39.75
2019-04-20T06:21:15.829Z,40.28
2019-04-20T06:26:40.037Z,35.80
2019-04-20T06:31:22.698Z,39.03
2019-04-20T06:36:30.672Z,38.00
2019-04-20T06:41:46.568Z,39.78
2019-04-20T06:46:36.360Z,34.38
2019-04-20T06:52:00.454Z,59.08
2019-04-20T06:57:00.195Z,35.15
2019-04-20T07:02:11.982Z,40.85
2019-04-20T07:07:15.708Z,146.55
2019-04-20T07:12:16.797Z,29.82
2019-04-20T07:17:39.356Z,47.98
2019-04-20T07:22:40.740Z,34.63
2019-04-20T07:27:41.566Z,29.63
2019-04-20T07:32:53.773Z,25.02
2019-04-20T07:43:08.140Z,24.43
2019-04-20T07:53:01.527Z,26.62
2019-04-20T07:58:09.839Z,27.67
2019-04-20T08:03:35.172Z,21.73
2019-04-20T08:08:34.830Z,25.05
2019-04-20T08:13:45.757Z,35.38
2019-04-20T08:18:51.618Z,17.70
2019-04-20T08:23:52.154Z,20.62
2019-04-20T08:28:51.254Z,15.50
2019-04-20T08:34:28.264Z,15.70
2019-04-20T08:44:42.856Z,20.60
2019-04-20T08:49:29.534Z,17.75
2019-04-20T08:54:26.721Z,18.82
2019-04-20T08:59:16.826Z,19.05
2019-04-20T09:04:35.963Z,16.57
2019-04-20T09:09:49.458Z,16.05
2019-04-20T09:14:36.105Z,19.27
2019-04-20T09:19:46.982Z,21.93
2019-04-20T09:25:14.749Z,21.50
2019-04-20T09:30:04.581Z,7.15
2019-04-20T09:35:13.744Z,12.20
2019-04-20T09:40:23.887Z,13.80
2019-04-20T09:45:23.454Z,7.65
2019-04-20T09:50:38.771Z,14.83
2019-04-20T09:55:37.835Z,9.85
2019-04-20T10:01:00.801Z,12.00
2019-04-20T10:05:49.641Z,15.43
2019-04-20T10:10:54.365Z,16.97
2019-04-20T10:15:59.726Z,40.55
2019-04-20T10:21:05.374Z,19.73
2019-04-20T10:26:09.519Z,13.60
2019-04-20T10:31:14.525Z,15.23
2019-04-20T10:36:23.638Z,17.20
2019-04-20T10:41:37.024Z,11.22
2019-04-20T10:46:35.063Z,11.20
2019-04-20T10:51:45.027Z,14.90
2019-04-20T10:56:49.779Z,12.13
2019-04-20T11:02:21.924Z,12.95
2019-04-20T11:07:26.449Z,11.90
2019-04-20T11:12:30.536Z,16.50
2019-04-20T11:17:35.350Z,11.90
2019-04-20T11:22:40.173Z,13.43
2019-04-20T11:27:44.369Z,19.02
2019-04-20T11:32:48.444Z,14.53
2019-04-20T11:37:55.432Z,16.12
2019-04-20T11:42:59.660Z,12.53
2019-04-20T11:48:03.733Z,15.60
2019-04-20T11:53:08.951Z,10.45
2019-04-20T11:58:14.220Z,14.65
2019-04-20T12:03:28.214Z,10.68
2019-04-20T12:08:25.506Z,16.13
2019-04-20T12:13:30.873Z,11.80
2019-04-20T12:18:35.868Z,14.33
2019-04-20T12:23:40.358Z,13.98
2019-04-20T12:28:45.413Z,13.00
2019-04-20T12:33:50.541Z,13.80
2019-04-20T12:38:55.025Z,11.45
2019-04-20T12:43:59.546Z,10.80
2019-04-20T12:49:03.779Z,10.75
2019-04-20T12:54:08.858Z,14.13
2019-04-20T12:59:13.783Z,13.32
2019-04-20T13:04:18.480Z,11.75
2019-04-20T13:09:22.980Z,9.90
2019-04-20T13:14:50.694Z,8.03
2019-04-20T13:19:55.390Z,13.10
2019-04-20T13:24:59.413Z,10.20
2019-04-20T13:30:04.848Z,13.13
2019-04-20T13:35:10.055Z,29.25
2019-04-20T13:40:15.571Z,14.65
2019-04-20T13:45:21.269Z,9.80
2019-04-20T13:50:26.261Z,9.98
2019-04-20T13:55:30.262Z,13.90
2019-04-20T14:00:59.018Z,12.07
2019-04-20T14:06:04.658Z,10.05
2019-04-20T14:11:11.371Z,12.80
2019-04-20T14:16:16.763Z,9.20
2019-04-20T14:21:21.029Z,7.28
2019-04-20T14:26:25.227Z,9.80
2019-04-20T14:31:30.025Z,7.87
2019-04-20T14:36:34.934Z,12.65
2019-04-20T14:41:40.362Z,6.05
2019-04-20T14:46:45.511Z,10.78
2019-04-20T14:51:49.960Z,10.20
2019-04-20T14:56:54.145Z,8.75
2019-04-20T15:02:06.501Z,5.33
2019-04-20T15:07:11.012Z,6.75
2019-04-20T15:12:16.992Z,7.60
2019-04-20T15:17:25.853Z,8.93
2019-04-20T15:22:31.672Z,5.92
2019-04-20T15:27:37.276Z,6.28
2019-04-20T15:32:42.988Z,5.22
2019-04-20T15:37:47.270Z,7.53
2019-04-20T15:42:58.965Z,8.48
2019-04-20T15:47:58.141Z,8.45
2019-04-20T15:53:05.860Z,6.90
2019-04-20T15:58:10.335Z,7.35
2019-04-20T16:03:17.221Z,9.15
2019-04-20T16:08:30.132Z,6.58
2019-04-20T16:13:39.511Z,10.08
2019-04-20T16:18:41.084Z,7.80
2019-04-20T16:23:48.426Z,11.80
2019-04-20T16:28:53.511Z,8.85
2019-04-20T16:33:58.785Z,15.30
2019-04-20T16:39:03.701Z,19.40
2019-04-20T16:44:09.205Z,16.45
2019-04-20T16:49:13.340Z,12.95
2019-04-20T16:54:17.601Z,10.43
2019-04-20T16:59:22.548Z,13.30
2019-04-20T17:04:28.379Z,14.47
2019-04-20T17:09:33.635Z,13.30
2019-04-20T17:14:37.860Z,12.18
2019-04-20T17:19:41.916Z,15.75
2019-04-20T17:24:46.985Z,15.18
2019-04-20T17:29:52.899Z,23.83
2019-04-20T17:35:10.541Z,18.02
2019-04-20T17:40:26.722Z,26.68
2019-04-20T17:45:14.026Z,28.47
2019-04-20T17:50:30.355Z,33.42
2019-04-20T17:55:40.855Z,36.38
2019-04-20T18:00:45.620Z,34.40
2019-04-20T18:06:08.345Z,43.85
2019-04-20T18:11:03.223Z,43.95
2019-04-20T18:16:28.404Z,48.13
2019-04-20T18:21:16.900Z,43.50
2019-04-20T18:26:39.336Z,40.33
2019-04-20T18:31:29.218Z,48.85
2019-04-20T18:36:52.769Z,41.18
2019-04-20T18:42:10.073Z,36.42
2019-04-20T18:47:30.459Z,43.48
2019-04-20T18:52:11.607Z,55.55
2019-04-20T18:57:21.790Z,64.45
2019-04-20T19:02:27.002Z,65.70
2019-04-20T19:07:27.967Z,68.35
2019-04-20T19:12:46.131Z,64.40
2019-04-20T19:17:58.997Z,72.75
2019-04-20T19:22:54.019Z,62.38
2019-04-20T19:28:00.956Z,56.08
2019-04-20T19:33:24.616Z,57.60
2019-04-20T19:39:26.218Z,61.92
2019-04-20T19:44:26.777Z,55.50
2019-04-20T19:50:11.004Z,55.50
2019-04-20T19:55:14.328Z,54.13
2019-04-20T20:00:02.537Z,61.18
2019-04-20T20:05:11.682Z,54.38
2019-04-20T20:10:14.646Z,62.08
2019-04-20T20:15:26.201Z,59.70
2019-04-20T20:20:50.049Z,62.60
2019-04-20T20:25:37.309Z,49.83
2019-04-20T20:30:49.822Z,48.45
2019-04-20T20:35:52.975Z,37.38
2019-04-20T20:41:02.963Z,37.15
2019-04-20T20:46:05.039Z,33.55
2019-04-20T20:51:14.757Z,35.50
2019-04-20T20:56:15.011Z,39.23
2019-04-20T21:01:18.457Z,30.88
2019-04-20T21:06:18.899Z,31.87
2019-04-20T21:11:27.227Z,28.45
2019-04-20T21:16:33.048Z,25.75
2019-04-20T21:21:46.320Z,30.32
2019-04-20T21:26:42.743Z,37.10
2019-04-20T21:31:57.062Z,32.40
2019-04-20T21:36:55.304Z,28.92
2019-04-20T21:42:04.660Z,29.35
2019-04-20T21:47:03.501Z,32.20
2019-04-20T21:52:20.866Z,41.42
2019-04-20T21:57:15.023Z,50.00
2019-04-20T22:02:25.238Z,46.88
2019-04-20T22:07:26.179Z,54.60
2019-04-20T22:12:39.890Z,55.17
2019-04-20T22:17:37.445Z,59.13
2019-04-20T22:22:57.236Z,62.60
2019-04-20T22:27:48.285Z,55.63
2019-04-20T22:32:55.277Z,43.98
2019-04-20T22:38:13.825Z,43.92
2019-04-20T22:43:18.000Z,50.03
2019-04-20T22:48:21.319Z,43.17
2019-04-20T22:53:42.780Z,38.33
2019-04-20T22:58:46.025Z,44.40
2019-04-20T23:03:36.838Z,41.83
2019-04-20T23:08:40.832Z,39.75
2019-04-20T23:13:48.303Z,44.00
2019-04-20T23:18:51.935Z,41.68
2019-04-20T23:24:01.573Z,46.55
2019-04-20T23:29:02.692Z,40.85
2019-04-20T23:34:12.823Z,45.92
2019-04-20T23:39:13.044Z,43.10
2019-04-20T23:44:27.474Z,41.53
2019-04-20T23:49:53.548Z,43.02
2019-04-20T23:54:50.249Z,43.23
2019-04-20T23:59:46.281Z,51.60
